Time;durP1;ratioP1;P1;durP2;ratioP2;P2;SDS_P1;SDS_P2;PMS_P1;PMS_P2;Temp;Humidity;BMP_temperature;BMP_pressure;BME280_temperature;BME280_humidity;BME280_pressure;Samples;Min_cycle;Max_cycle;Signal;HPM_P1;HPM_P2
2023/10/13 00:04:46;;;;;;;6.75;2.75;;;;;;;17.26;67.92;99798.94;10381473;28;20046;-63
2023/10/13 00:10:07;;;;;;;6.22;3.15;;;;;;;17.17;68.25;99792.66;10390098;28;20132;-63
2023/10/13 00:15:13;;;;;;;6.55;3.45;;;;;;;17.10;68.86;99790.72;10387790;28;20053;-63
2023/10/13 00:20:35;;;;;;;7.03;2.55;;;;;;;17.18;68.31;99781.09;10388492;28;20045;-63
2023/10/13 00:25:49;;;;;;;6.20;2.65;;;;;;;17.21;68.25;99783.50;10387543;28;20057;-63
2023/10/13 00:31:01;;;;;;;5.53;2.75;;;;;;;17.25;68.29;99787.53;10387154;28;20048;-63
2023/10/13 00:36:05;;;;;;;4.18;2.42;;;;;;;17.32;68.00;99774.59;10382554;28;20127;-63
2023/10/13 00:41:17;;;;;;;4.13;2.45;;;;;;;17.35;68.14;99766.41;10385637;28;20045;-63
2023/10/13 00:46:20;;;;;;;7.88;2.75;;;;;;;17.22;68.13;99766.66;10385863;28;20413;-62
2023/10/13 00:51:32;;;;;;;6.30;3.17;;;;;;;17.12;68.12;99773.72;10387370;28;20053;-62
2023/10/13 00:56:40;;;;;;;6.85;3.13;;;;;;;17.15;68.35;99776.13;10387021;28;20041;-62
2023/10/13 01:01:43;;;;;;;4.95;2.30;;;;;;;17.16;68.31;99769.84;10385649;28;20422;-64
2023/10/13 01:06:46;;;;;;;5.50;2.53;;;;;;;17.17;68.02;99766.25;10386317;28;20045;-63
2023/10/13 01:11:52;;;;;;;6.70;3.28;;;;;;;17.27;67.98;99774.16;10385795;28;20053;-64
2023/10/13 01:16:55;;;;;;;6.72;2.65;;;;;;;17.27;68.31;99769.72;10383566;28;20049;-64
2023/10/13 01:22:02;;;;;;;6.60;2.42;;;;;;;17.38;67.84;99776.72;10364956;28;20038;-64
2023/10/13 01:27:17;;;;;;;7.78;2.80;;;;;;;17.44;67.79;99766.44;10385484;28;20512;-64
2023/10/13 01:32:23;;;;;;;7.75;2.75;;;;;;;17.45;67.75;99762.81;10369486;28;20132;-64
2023/10/13 01:37:25;;;;;;;4.63;2.50;;;;;;;17.45;67.62;99749.59;10384139;28;20417;-64
2023/10/13 01:42:30;;;;;;;8.90;3.35;;;;;;;17.50;67.59;99743.88;10383556;28;20049;-64
2023/10/13 01:47:35;;;;;;;5.95;2.90;;;;;;;17.48;67.56;99735.25;10384315;28;20703;-63
2023/10/13 01:52:38;;;;;;;4.70;2.42;;;;;;;17.45;67.62;99724.94;10385714;28;20053;-64
2023/10/13 01:57:47;;;;;;;6.93;2.70;;;;;;;17.34;67.62;99725.94;10383625;28;20199;-63
2023/10/13 02:02:50;;;;;;;8.52;2.40;;;;;;;17.17;68.03;99726.59;10380272;28;20049;-63
2023/10/13 02:07:53;;;;;;;5.80;2.83;;;;;;;17.00;68.36;99719.34;10392982;28;20489;-63
2023/10/13 02:12:55;;;;;;;4.97;2.83;;;;;;;17.06;68.41;99702.94;10390461;28;20056;-63
2023/10/13 02:17:59;;;;;;;9.70;3.10;;;;;;;16.98;68.73;99689.59;10387003;28;20134;-64
2023/10/13 02:23:01;;;;;;;4.93;2.63;;;;;;;17.13;68.54;99671.50;10388713;28;20045;-63
2023/10/13 02:28:09;;;;;;;7.00;2.45;;;;;;;17.21;68.39;99688.34;10388633;28;20549;-63
2023/10/13 02:33:12;;;;;;;6.15;2.80;;;;;;;17.27;67.96;99681.66;10391041;28;20417;-63
2023/10/13 02:38:16;;;;;;;5.95;2.65;;;;;;;17.26;68.04;99677.38;10389086;28;20049;-63
2023/10/13 02:43:21;;;;;;;5.40;2.60;;;;;;;17.18;67.99;99661.38;10390018;28;20488;-63
2023/10/13 02:48:25;;;;;;;4.40;2.50;;;;;;;17.02;68.15;99656.63;10390517;28;20405;-64
2023/10/13 02:53:28;;;;;;;6.72;2.67;;;;;;;16.98;68.17;99652.59;10389638;28;20046;-63
2023/10/13 02:58:43;;;;;;;4.00;2.30;;;;;;;16.96;68.10;99643.97;10389480;28;20053;-63
2023/10/13 03:03:51;;;;;;;4.93;2.55;;;;;;;16.94;68.16;99640.63;10379155;28;20049;-63
2023/10/13 03:08:54;;;;;;;5.15;2.80;;;;;;;16.87;68.07;99632.44;10380897;28;20049;-63
2023/10/13 03:13:55;;;;;;;5.85;2.35;;;;;;;16.80;68.23;99627.84;10376282;28;20053;-63
2023/10/13 03:18:58;;;;;;;7.05;3.35;;;;;;;16.78;68.29;99627.16;10383591;28;20046;-63
2023/10/13 03:24:06;;;;;;;5.55;3.20;;;;;;;16.76;68.51;99629.94;10381779;28;20049;-63
2023/10/13 03:29:09;;;;;;;5.93;2.58;;;;;;;16.74;68.44;99623.13;10399084;28;20719;-64
2023/10/13 03:34:12;;;;;;;3.55;1.90;;;;;;;16.66;68.56;99622.97;10379122;28;20042;-63
2023/10/13 03:39:14;;;;;;;3.80;1.80;;;;;;;16.77;68.42;99621.03;10384471;28;20059;-63
2023/10/13 03:44:17;;;;;;;5.90;2.55;;;;;;;16.83;68.39;99606.44;10388073;28;20062;-63
2023/10/13 03:49:25;;;;;;;11.88;3.03;;;;;;;16.75;68.84;99601.03;10389782;28;20048;-63
2023/10/13 03:54:30;;;;;;;3.45;2.10;;;;;;;16.77;69.01;99601.72;10391168;28;20073;-63
2023/10/13 03:59:35;;;;;;;4.82;2.45;;;;;;;16.83;68.93;99601.16;10389533;28;20212;-64
2023/10/13 04:04:53;;;;;;;4.10;2.10;;;;;;;16.92;68.98;99592.41;10389552;28;20053;-63
2023/10/13 04:11:18;;;;;;;3.65;2.20;;;;;;;16.91;68.91;99596.88;10389653;28;20042;-63
2023/10/13 04:15:23;;;;;;;7.90;2.20;;;;;;;17.04;68.31;99583.34;10390153;28;20046;-63
2023/10/13 04:20:32;;;;;;;4.43;2.10;;;;;;;17.07;68.60;99584.88;10388150;28;20041;-64
2023/10/13 04:25:52;;;;;;;7.18;2.75;;;;;;;17.11;68.20;99565.97;10388590;28;20064;-64
2023/10/13 04:36:13;;;;;;;5.82;2.67;;;;;;;16.94;68.75;99550.81;10388465;28;20582;-64
2023/10/13 04:41:22;;;;;;;5.03;2.65;;;;;;;16.87;68.97;99547.09;10388627;28;20045;-63
2023/10/13 04:46:54;;;;;;;6.82;2.30;;;;;;;16.91;68.73;99545.84;10369865;28;20686;-64
2023/10/13 06:28:42;;;;;;;;;;;;;;;16.84;69.31;99510.38;10382435;28;20494;-65
2023/10/13 06:33:45;;;;;;;5.68;2.75;;;;;;;16.92;68.56;99513.16;10382578;28;20697;-64
2023/10/13 06:38:55;;;;;;;7.95;2.65;;;;;;;16.94;68.72;99504.13;10381719;28;20386;-64
2023/10/13 06:44:00;;;;;;;7.30;2.63;;;;;;;17.04;68.81;99506.72;10381504;28;20084;-65
2023/10/13 06:49:02;;;;;;;5.53;2.70;;;;;;;17.09;68.99;99504.50;10382049;28;20128;-64
2023/10/13 06:54:10;;;;;;;7.18;2.97;;;;;;;17.10;68.68;99490.31;10380538;28;20136;-65
2023/10/13 06:59:13;;;;;;;6.15;2.80;;;;;;;16.98;69.12;99491.44;10382572;28;20049;-64
2023/10/13 07:04:16;;;;;;;6.57;2.78;;;;;;;17.07;68.96;99485.31;10381579;28;20053;-64
2023/10/13 07:09:39;;;;;;;7.05;2.80;;;;;;;17.20;69.02;99482.38;10382435;28;20064;-64
2023/10/13 07:14:51;;;;;;;6.25;3.00;;;;;;;17.16;69.25;99497.66;10382154;28;20042;-64
2023/10/13 07:19:55;;;;;;;7.70;2.83;;;;;;;17.29;68.81;99502.63;10380542;28;20048;-65
2023/10/13 07:24:58;;;;;;;4.20;2.20;;;;;;;17.16;69.08;99499.47;10383111;28;20132;-65
2023/10/13 07:30:13;;;;;;;4.95;2.40;;;;;;;17.25;69.02;99512.66;10381458;28;20250;-65
2023/10/13 07:35:20;;;;;;;5.40;2.42;;;;;;;17.33;69.19;99499.59;10382218;28;20410;-65
2023/10/13 07:45:35;;;;;;;7.07;3.08;;;;;;;17.76;68.10;99481.31;10362027;28;20413;-64
2023/10/13 07:50:39;;;;;;;11.95;3.05;;;;;;;17.94;67.92;99483.13;10381609;28;20037;-65
2023/10/13 07:55:41;;;;;;;10.43;3.50;;;;;;;17.80;67.78;99480.03;10371624;28;20588;-65
2023/10/13 08:00:46;;;;;;;5.45;2.42;;;;;;;17.86;67.89;99468.00;10374600;28;20053;-65
2023/10/13 08:06:06;;;;;;;5.55;2.33;;;;;;;17.95;67.96;99464.47;10373527;28;20045;-65
2023/10/13 08:21:59;;;;;;;4.63;2.72;;;;;;;18.67;67.11;99453.72;10391531;28;20046;-68
2023/10/13 08:32:24;;;;;;;5.32;3.25;;;;;;;18.92;66.66;99447.63;10377396;28;20046;-68
2023/10/13 09:09:27;;;;;;;5.72;2.45;;;;;;;20.39;64.46;99402.84;10547735;27;20089;-63
2023/10/13 09:14:37;;;;;;;9.30;3.53;;;;;;;20.38;63.61;99399.34;10546929;27;20062;-62
2023/10/13 09:19:48;;;;;;;7.20;2.63;;;;;;;20.32;63.32;99396.53;10532324;27;20575;-61
2023/10/13 09:24:58;;;;;;;7.07;3.08;;;;;;;20.48;62.83;99397.34;10547361;27;20074;-61
2023/10/13 09:30:23;;;;;;;9.55;3.00;;;;;;;20.72;62.81;99397.34;10561176;27;20436;-60
2023/10/13 09:35:28;;;;;;;4.68;2.83;;;;;;;21.02;62.27;99398.47;10505432;27;20048;-61
2023/10/13 09:40:38;;;;;;;5.35;2.63;;;;;;;21.38;60.41;99393.53;10528203;27;20040;-61
2023/10/13 09:45:56;;;;;;;6.43;3.22;;;;;;;21.61;59.51;99383.78;10539513;27;20043;-60
2023/10/13 09:51:08;;;;;;;6.15;3.08;;;;;;;21.33;55.71;99374.59;10549853;27;20578;-61
2023/10/13 09:56:26;;;;;;;7.15;2.70;;;;;;;21.45;57.84;99379.38;10546172;27;20056;-61
2023/10/13 10:01:37;;;;;;;5.47;2.42;;;;;;;21.32;57.93;99383.56;10525986;27;20055;-61
2023/10/13 10:07:00;;;;;;;6.63;2.65;;;;;;;21.61;55.37;99383.78;10534866;27;20582;-61
2023/10/13 10:12:25;;;;;;;8.07;2.90;;;;;;;21.75;54.83;99383.03;10515858;27;20138;-60
2023/10/13 10:17:39;;;;;;;5.78;2.72;;;;;;;21.74;56.01;99381.38;10520872;27;20368;-61
2023/10/13 10:22:48;;;;;;;6.45;3.22;;;;;;;21.80;56.20;99359.38;10490296;27;20048;-61
2023/10/13 10:27:59;;;;;;;6.93;2.92;;;;;;;21.86;55.02;99353.34;10499850;28;20488;-61
2023/10/13 10:33:15;;;;;;;6.65;2.80;;;;;;;21.92;55.39;99344.66;10478195;28;20051;-61
2023/10/13 10:38:32;;;;;;;9.48;2.92;;;;;;;22.17;55.13;99332.00;10523219;27;20048;-61
2023/10/13 10:43:48;;;;;;;10.65;3.17;;;;;;;22.04;55.04;99335.25;10510441;27;20044;-61
2023/10/13 10:49:00;;;;;;;5.13;3.05;;;;;;;22.06;54.55;99327.91;10516405;27;20043;-61
2023/10/13 10:54:12;;;;;;;7.93;2.88;;;;;;;22.19;53.24;99306.81;10496751;28;20523;-60
2023/10/13 10:59:19;;;;;;;5.72;2.67;;;;;;;22.29;53.82;99299.38;10510905;27;20048;-61
2023/10/13 11:04:33;;;;;;;7.70;2.95;;;;;;;22.30;53.46;99301.06;10515019;28;20047;-61
2023/10/13 11:09:37;;;;;;;6.85;3.45;;;;;;;22.54;52.84;99297.31;10514080;27;20508;-61
2023/10/13 11:14:39;;;;;;;6.53;2.80;;;;;;;23.01;51.88;99304.94;10510353;28;20160;-61
2023/10/13 11:19:42;;;;;;;6.03;2.58;;;;;;;23.23;51.18;99293.31;10509389;28;20423;-61
2023/10/13 11:24:45;;;;;;;5.30;2.78;;;;;;;23.63;50.84;99289.28;10511571;27;20048;-61
2023/10/13 11:29:52;;;;;;;6.93;3.22;;;;;;;23.91;49.95;99280.31;10511853;27;20423;-61
2023/10/13 11:34:55;;;;;;;6.32;2.85;;;;;;;24.24;49.63;99278.75;10510605;28;20048;-61
2023/10/13 11:39:58;;;;;;;8.48;2.75;;;;;;;24.50;48.69;99271.91;10489947;27;20040;-60
2023/10/13 11:45:55;;;;;;;7.03;2.85;;;;;;;24.46;47.85;99271.50;10505501;27;20043;-60
2023/10/13 11:50:33;;;;;;;7.18;3.08;;;;;;;24.64;47.50;99262.94;10499278;27;20070;-61
2023/10/13 11:55:36;;;;;;;5.53;2.97;;;;;;;24.87;46.98;99256.31;10505531;28;20053;-60
2023/10/13 12:00:53;;;;;;;5.13;2.55;;;;;;;25.01;46.61;99252.69;10488768;28;20047;-60
2023/10/13 12:11:30;;;;;;;6.57;2.72;;;;;;;24.80;46.75;99243.94;10420514;28;20139;-61
2023/10/13 12:16:36;;;;;;;5.40;2.50;;;;;;;24.60;46.78;99232.28;10503403;27;20488;-61
2023/10/13 12:21:43;;;;;;;4.80;2.60;;;;;;;24.45;46.92;99229.72;10511942;28;20318;-61
2023/10/13 12:26:55;;;;;;;4.93;2.53;;;;;;;24.55;47.15;99218.69;10509263;28;20040;-61
2023/10/13 12:32:07;;;;;;;7.18;3.00;;;;;;;24.05;46.46;99209.09;10505619;28;20044;-61
2023/10/13 12:53:15;;;;;;;7.00;2.85;;;;;;;23.64;45.97;99181.47;10489273;28;20036;-61
2023/10/13 12:58:22;;;;;;;5.70;2.30;;;;;;;23.65;46.25;99191.13;10505446;28;20056;-61
2023/10/13 13:03:29;;;;;;;5.55;2.55;;;;;;;23.53;45.79;99188.16;10505495;28;20051;-61
2023/10/13 13:08:35;;;;;;;5.03;2.55;;;;;;;23.61;45.52;99182.69;10493035;28;20050;-61
2023/10/13 13:13:38;;;;;;;4.80;2.28;;;;;;;23.67;45.58;99176.59;10506157;28;20160;-61
2023/10/13 13:18:45;;;;;;;6.80;2.20;;;;;;;23.66;44.87;99150.88;10486428;28;20055;-61
2023/10/13 13:23:47;;;;;;;12.40;2.33;;;;;;;23.73;44.79;99156.28;10504818;28;20141;-61
2023/10/13 13:28:51;;;;;;;5.22;2.72;;;;;;;23.71;44.81;99152.97;10502412;28;20044;-61
2023/10/13 13:33:56;;;;;;;5.10;2.33;;;;;;;23.71;44.54;99143.13;10484158;28;20071;-61
2023/10/13 13:39:00;;;;;;;11.18;2.90;;;;;;;23.82;44.44;99128.44;10508946;28;20526;-62
2023/10/13 13:44:16;;;;;;;5.43;2.65;;;;;;;23.86;44.79;99124.34;10495137;27;20040;-61
2023/10/13 13:49:18;;;;;;;7.13;2.50;;;;;;;24.08;44.41;99118.72;10510423;28;20040;-62
2023/10/13 13:54:20;;;;;;;6.45;2.40;;;;;;;24.37;44.35;99112.28;10511407;28;20127;-62
2023/10/13 13:59:26;;;;;;;6.72;2.90;;;;;;;24.06;43.82;99115.41;10512029;27;20043;-61
2023/10/13 14:04:31;;;;;;;10.05;3.10;;;;;;;23.71;44.74;99112.94;10493915;27;20059;-62
2023/10/13 14:09:40;;;;;;;10.68;2.50;;;;;;;23.50;45.26;99111.13;10509143;27;20044;-61
2023/10/13 14:14:55;;;;;;;7.88;2.22;;;;;;;23.50;45.15;99108.47;10509508;28;20051;-62
2023/10/13 14:19:58;;;;;;;6.63;2.58;;;;;;;23.50;45.11;99092.44;10531709;27;20039;-62
2023/10/13 14:25:08;;;;;;;7.00;2.88;;;;;;;23.46;45.06;99080.50;10514548;28;20440;-62
2023/10/13 14:30:19;;;;;;;6.25;2.33;;;;;;;23.47;44.65;99066.16;10493481;28;20051;-62
2023/10/13 14:35:25;;;;;;;7.95;3.53;;;;;;;23.34;45.57;99056.19;10510933;27;20500;-63
2023/10/13 14:40:29;;;;;;;5.40;2.53;;;;;;;23.28;45.63;99048.13;10513103;28;20043;-61
2023/10/13 14:45:33;;;;;;;6.68;2.55;;;;;;;23.22;45.49;99049.72;10510634;28;20121;-63
2023/10/13 14:50:42;;;;;;;4.80;2.10;;;;;;;23.38;46.43;99045.94;10509125;28;20657;-60
2023/10/13 14:55:46;;;;;;;5.70;2.28;;;;;;;23.37;46.28;99054.97;10509513;27;20443;-61
2023/10/13 15:00:48;;;;;;;5.88;2.28;;;;;;;23.28;46.55;99045.47;10509072;27;20519;-61
2023/10/13 15:05:50;;;;;;;5.47;2.60;;;;;;;23.14;46.65;99043.72;10509375;27;20139;-61
2023/10/13 15:10:52;;;;;;;5.88;2.40;;;;;;;22.92;46.56;99032.25;10508668;27;20047;-61
2023/10/13 15:15:57;;;;;;;8.55;2.70;;;;;;;22.87;46.80;99023.16;10509792;28;20139;-61
2023/10/13 15:21:02;;;;;;;7.90;2.45;;;;;;;22.77;46.91;99025.31;10507113;28;20494;-61
2023/10/13 15:26:09;;;;;;;7.20;2.80;;;;;;;22.76;46.90;99013.81;10509605;27;20040;-61
2023/10/13 15:31:22;;;;;;;6.38;2.28;;;;;;;22.70;47.20;99019.91;10488297;28;20114;-61
2023/10/13 15:36:27;;;;;;;4.47;2.63;;;;;;;22.61;47.10;99019.22;10489315;28;20120;-61
2023/10/13 15:41:33;;;;;;;10.15;2.95;;;;;;;22.51;47.41;99021.38;10490353;27;20106;-61
2023/10/13 15:46:37;;;;;;;5.63;2.85;;;;;;;22.48;47.14;99004.91;10492867;27;20756;-62
2023/10/13 15:51:59;;;;;;;6.35;2.42;;;;;;;22.40;46.87;99003.22;10491855;28;20035;-61
2023/10/13 15:57:06;;;;;;;4.93;2.40;;;;;;;22.37;47.96;98998.25;10492942;28;20516;-61
2023/10/13 16:02:11;;;;;;;5.68;2.53;;;;;;;22.27;47.84;98987.06;10505015;27;20044;-62
2023/10/13 16:07:14;;;;;;;9.60;2.30;;;;;;;22.16;47.79;98979.59;10510971;27;20120;-62
2023/10/13 16:12:17;;;;;;;6.63;2.15;;;;;;;22.12;48.14;98970.34;10512200;27;20139;-62
2023/10/13 16:17:22;;;;;;;5.10;2.53;;;;;;;22.11;47.74;98967.88;10523966;28;20044;-63
2023/10/13 16:22:25;;;;;;;8.05;2.55;;;;;;;22.06;48.38;98972.91;10501734;28;20048;-62
2023/10/13 16:27:27;;;;;;;5.47;2.42;;;;;;;21.87;48.89;98969.81;10499888;28;20506;-62
2023/10/13 16:32:30;;;;;;;5.28;1.90;;;;;;;21.72;49.15;98962.88;10514090;28;21151;-62
2023/10/13 16:37:33;;;;;;;7.45;2.42;;;;;;;21.65;48.79;98956.63;10512623;28;20051;-62
2023/10/13 16:42:39;;;;;;;4.60;2.33;;;;;;;21.44;49.77;98948.56;10509753;28;20483;-62
2023/10/13 16:47:42;;;;;;;5.78;2.40;;;;;;;21.35;49.88;98941.69;10515841;28;20024;-62
2023/10/13 16:52:47;;;;;;;7.38;3.13;;;;;;;21.19;50.44;98941.84;10507622;28;20040;-62
2023/10/13 16:57:52;;;;;;;5.30;2.15;;;;;;;21.07;51.00;98939.63;10507368;28;20055;-61
2023/10/13 17:02:56;;;;;;;5.60;2.20;;;;;;;20.97;51.43;98939.06;10510235;28;20307;-61
2023/10/13 17:08:03;;;;;;;8.98;3.22;;;;;;;20.86;52.19;98925.41;10512922;28;20044;-60
2023/10/13 17:13:07;;;;;;;6.30;2.38;;;;;;;20.74;52.60;98938.28;10492074;28;20051;-61
2023/10/13 17:18:09;;;;;;;5.63;2.78;;;;;;;20.68;53.38;98932.88;10512828;28;20043;-61
2023/10/13 17:23:12;;;;;;;8.15;2.92;;;;;;;20.57;53.59;98933.28;10515558;28;20224;-61
2023/10/13 17:28:16;;;;;;;7.82;2.65;;;;;;;20.48;53.90;98929.84;10510779;27;20556;-61
2023/10/13 17:33:19;;;;;;;11.35;2.92;;;;;;;20.33;54.38;98923.69;10509556;27;20036;-61
2023/10/13 17:38:24;;;;;;;8.40;3.63;;;;;;;20.27;54.65;98925.19;10517541;27;20082;-61
2023/10/13 17:43:26;;;;;;;9.60;2.78;;;;;;;20.18;54.82;98918.31;10509220;28;20051;-61
2023/10/13 17:48:31;;;;;;;9.80;3.60;;;;;;;20.10;55.36;98906.91;10511491;27;20403;-61
2023/10/13 17:53:37;;;;;;;10.10;4.07;;;;;;;20.02;55.68;98915.78;10515276;28;20044;-61
2023/10/13 17:58:43;;;;;;;6.88;3.30;;;;;;;19.92;55.85;98907.22;10510871;28;20444;-61
2023/10/13 18:03:51;;;;;;;6.68;3.10;;;;;;;19.82;56.08;98893.34;10520473;27;20137;-62
2023/10/13 18:08:54;;;;;;;5.32;2.78;;;;;;;19.76;56.38;98895.84;10523516;27;20072;-61
2023/10/13 18:13:58;;;;;;;8.70;3.45;;;;;;;19.65;56.80;98890.91;10506698;27;20115;-62
2023/10/13 18:19:01;;;;;;;8.48;3.17;;;;;;;19.51;57.01;98884.53;10501170;28;20047;-62
2023/10/13 18:24:04;;;;;;;6.95;3.35;;;;;;;19.37;57.57;98872.84;10513070;27;20135;-61
2023/10/13 18:29:09;;;;;;;6.90;3.35;;;;;;;19.33;57.89;98871.53;10493168;27;20200;-61
2023/10/13 18:34:11;;;;;;;8.18;3.08;;;;;;;19.21;58.08;98864.94;10495055;27;20044;-61
2023/10/13 18:39:18;;;;;;;6.78;3.50;;;;;;;19.24;58.20;98866.41;10516383;27;20138;-61
2023/10/13 18:44:22;;;;;;;6.07;3.22;;;;;;;19.08;58.82;98867.31;10512694;27;20493;-61
2023/10/13 18:49:25;;;;;;;8.35;3.38;;;;;;;19.02;58.82;98862.69;10520198;27;20066;-61
2023/10/13 18:54:27;;;;;;;7.72;3.75;;;;;;;18.97;59.39;98851.72;10533843;27;20976;-61
2023/10/13 18:59:29;;;;;;;6.25;3.30;;;;;;;18.80;59.32;98841.38;10509052;27;20121;-62
2023/10/13 19:04:34;;;;;;;9.63;3.67;;;;;;;18.72;59.61;98852.81;10518303;27;20603;-62
2023/10/13 19:09:38;;;;;;;6.82;2.90;;;;;;;18.76;58.99;98835.59;10506034;27;20207;-62
2023/10/13 19:14:41;;;;;;;8.35;3.38;;;;;;;18.90;59.04;98834.03;10525111;28;20116;-62
2023/10/13 19:19:44;;;;;;;5.53;2.70;;;;;;;18.97;58.62;98833.19;10521185;27;20059;-62
2023/10/13 19:24:47;;;;;;;6.13;2.92;;;;;;;18.99;57.53;98830.38;10515238;27;20430;-61
2023/10/13 19:29:49;;;;;;;6.97;2.30;;;;;;;19.19;55.79;98839.59;10521135;27;20048;-61
2023/10/13 19:34:52;;;;;;;4.63;2.00;;;;;;;19.52;53.83;98837.63;10505153;27;20044;-61
2023/10/13 19:39:59;;;;;;;5.20;2.22;;;;;;;19.84;49.44;98840.94;10491838;28;20098;-61
2023/10/13 19:45:03;;;;;;;5.72;2.30;;;;;;;20.13;50.79;98840.22;10492544;27;20048;-61
2023/10/13 19:50:05;;;;;;;5.00;1.92;;;;;;;20.35;49.74;98839.34;10496280;27;20139;-62
2023/10/13 19:55:07;;;;;;;3.75;2.00;;;;;;;20.54;49.60;98830.84;10510856;27;20048;-61
2023/10/13 20:00:19;;;;;;;6.57;1.95;;;;;;;20.66;48.39;98836.59;10510854;28;20418;-62
2023/10/13 20:05:21;;;;;;;6.60;2.15;;;;;;;20.74;48.13;98845.28;10492926;28;20691;-61
2023/10/13 20:10:23;;;;;;;4.68;2.20;;;;;;;20.82;47.94;98839.91;10508150;28;20484;-62
2023/10/13 20:15:27;;;;;;;6.22;2.00;;;;;;;20.86;47.64;98849.16;10489251;28;20036;-61
2023/10/13 20:20:30;;;;;;;4.47;2.10;;;;;;;20.97;46.79;98848.69;10517872;27;20127;-62
2023/10/13 20:25:32;;;;;;;6.50;1.83;;;;;;;21.01;47.13;98839.34;10502331;28;20043;-62
2023/10/13 20:30:36;;;;;;;5.18;2.67;;;;;;;21.01;47.23;98835.84;10510543;28;20303;-62
2023/10/13 20:35:47;;;;;;;7.60;2.33;;;;;;;20.94;45.92;98838.44;10511569;28;20047;-62
2023/10/13 20:41:03;;;;;;;5.38;1.90;;;;;;;20.95;45.96;98829.44;10518694;27;20341;-61
2023/10/13 20:46:06;;;;;;;4.05;2.33;;;;;;;20.97;47.07;98816.78;10489042;28;20040;-61
2023/10/13 20:51:13;;;;;;;3.75;2.00;;;;;;;20.88;46.59;98807.28;10511800;28;20053;-61
2023/10/13 20:56:17;;;;;;;5.10;2.15;;;;;;;20.93;46.63;98825.31;10510825;28;20063;-62
2023/10/13 21:01:21;;;;;;;4.32;2.20;;;;;;;20.98;46.63;98833.56;10511147;28;20073;-62
2023/10/13 21:06:23;;;;;;;5.55;2.13;;;;;;;20.99;46.71;98821.91;10498342;28;20066;-62
2023/10/13 21:11:29;;;;;;;6.63;2.10;;;;;;;21.00;46.74;98811.13;10513449;28;20039;-61
2023/10/13 21:16:31;;;;;;;5.82;1.98;;;;;;;21.00;46.90;98820.91;10504376;28;20189;-62
2023/10/13 21:21:34;;;;;;;7.65;2.50;;;;;;;20.94;46.83;98809.19;10519440;28;20064;-62
2023/10/13 21:26:38;;;;;;;6.15;2.25;;;;;;;20.93;46.83;98812.84;10516484;28;20075;-62
2023/10/13 21:31:41;;;;;;;4.03;2.10;;;;;;;20.92;46.77;98802.41;10496300;28;20415;-61
2023/10/13 21:36:44;;;;;;;7.07;2.60;;;;;;;20.94;46.30;98811.84;10513677;28;20153;-62
2023/10/13 21:41:47;;;;;;;4.28;2.05;;;;;;;21.01;46.53;98827.88;10517256;28;20594;-62
2023/10/13 21:46:51;;;;;;;8.00;2.45;;;;;;;21.00;46.04;98810.28;10514866;28;20064;-62
2023/10/13 21:51:54;;;;;;;4.60;2.35;;;;;;;21.16;45.69;98798.63;10514227;28;20519;-62
2023/10/13 21:56:56;;;;;;;6.03;2.15;;;;;;;21.15;45.72;98792.47;10508431;28;20064;-61
2023/10/13 22:01:59;;;;;;;5.40;2.80;;;;;;;21.18;45.70;98784.13;10496093;28;20415;-61
2023/10/13 22:07:01;;;;;;;7.80;2.30;;;;;;;21.00;45.86;98779.22;10503186;28;20047;-61
2023/10/13 22:12:05;;;;;;;6.30;2.50;;;;;;;21.06;45.72;98789.13;10519577;27;20526;-61
2023/10/13 22:17:07;;;;;;;4.63;2.38;;;;;;;21.12;46.16;98786.69;10519283;28;20101;-61
2023/10/13 22:22:10;;;;;;;7.05;2.50;;;;;;;21.09;46.30;98766.63;10526666;28;20067;-62
2023/10/13 22:27:13;;;;;;;7.45;2.67;;;;;;;21.13;46.33;98769.75;10507387;27;20044;-61
2023/10/13 22:32:26;;;;;;;8.02;2.90;;;;;;;21.12;46.37;98755.63;10495422;28;20392;-62
2023/10/13 22:37:28;;;;;;;6.65;3.15;;;;;;;21.06;46.58;98757.22;10513443;27;20066;-62
2023/10/13 22:42:30;;;;;;;5.78;2.10;;;;;;;20.98;46.68;98759.97;10499001;27;20051;-61
2023/10/13 22:47:33;;;;;;;5.75;2.35;;;;;;;20.96;46.44;98762.00;10501331;28;20036;-62
2023/10/13 22:52:35;;;;;;;9.13;2.67;;;;;;;21.07;46.47;98781.94;10512818;27;20356;-61
2023/10/13 22:57:36;;;;;;;5.53;2.63;;;;;;;21.06;47.80;98762.53;10517210;27;20055;-62
2023/10/13 23:02:40;;;;;;;5.07;2.47;;;;;;;20.81;48.77;98734.59;10509775;27;20051;-62
2023/10/13 23:07:44;;;;;;;5.70;2.15;;;;;;;20.52;49.53;98721.31;10495489;28;20055;-61
2023/10/13 23:12:48;;;;;;;7.30;2.70;;;;;;;20.46;49.93;98747.78;10490785;28;20560;-61
2023/10/13 23:17:52;;;;;;;8.82;3.00;;;;;;;20.41;49.76;98761.63;10510040;27;20173;-62
2023/10/13 23:22:54;;;;;;;8.63;3.05;;;;;;;20.20;49.55;98738.41;10493404;27;20299;-62
2023/10/13 23:27:56;;;;;;;7.47;2.60;;;;;;;20.22;49.46;98740.88;10478200;28;20059;-61
2023/10/13 23:32:58;;;;;;;11.90;2.42;;;;;;;20.19;49.51;98735.97;10492803;27;20056;-61
2023/10/13 23:43:25;;;;;;;9.93;2.58;;;;;;;20.15;49.63;98724.84;10513387;28;20047;-62
2023/10/13 23:48:29;;;;;;;7.25;3.03;;;;;;;20.17;49.60;98716.72;10491536;28;20180;-61
2023/10/13 23:53:35;;;;;;;10.07;3.17;;;;;;;20.09;49.52;98709.66;10512575;27;20468;-61
2023/10/13 23:58:59;;;;;;;6.47;2.45;;;;;;;20.03;49.44;98709.56;10474665;27;20050;-61
